Time;durP1;ratioP1;P1;durP2;ratioP2;P2;SDS_P1;SDS_P2;PMS_P1;PMS_P2;Temp;Humidity;BMP_temperature;BMP_pressure;BME280_temperature;BME280_humidity;BME280_pressure;Samples;Min_cycle;Max_cycle;Signal;HPM_P1;HPM_P2
2021/12/16 00:06:52;;;;;;;26.90;15.07;;;;;;;-1.41;85.05;96823.61;1644042;87;21054;-67
2021/12/16 00:11:08;;;;;;;34.57;17.93;;;;;;;-1.64;85.51;96817.72;1734890;83;20988;-67
2021/12/16 00:32:44;;;;;;;5.50;3.03;;;;;;;-1.62;86.25;96836.80;1673292;82;21066;-67
2021/12/16 00:34:58;;;;;;;8.30;3.30;;;;;;;-1.64;85.75;96838.42;1734429;82;21107;-67
2021/12/16 00:37:26;;;;;;;6.40;2.90;;;;;;;-1.75;85.17;96842.67;1737288;82;21552;-67
2021/12/16 00:39:54;;;;;;;4.27;2.70;;;;;;;-1.85;84.92;96838.28;1737218;83;21105;-67
2021/12/16 00:42:45;;;;;;;4.70;2.47;;;;;;;-1.96;84.74;96844.23;1737260;82;21028;-67
2021/12/16 00:45:34;;;;;;;7.67;3.70;;;;;;;-2.06;85.05;96845.47;1734945;82;21027;-67
2021/12/16 00:55:51;;;;;;;25.07;13.57;;;;;;;-2.28;85.74;96847.78;1740406;82;21541;-67
2021/12/16 00:58:22;;;;;;;12.30;7.53;;;;;;;-2.32;85.80;96851.01;1747773;82;21035;-67
2021/12/16 01:00:59;;;;;;;6.10;3.23;;;;;;;-2.37;85.50;96851.17;1747582;82;21079;-67
2021/12/16 01:34:54;;;;;;;5.10;2.73;;;;;;;-2.48;85.93;96830.84;1747377;82;21113;-67
2021/12/16 01:47:35;;;;;;;4.30;2.23;;;;;;;-2.50;85.50;96817.36;1716150;82;21107;-67
2021/12/16 01:55:33;;;;;;;4.30;1.83;;;;;;;-2.88;84.75;96821.02;1747119;82;21023;-67
2021/12/16 01:58:11;;;;;;;2.30;1.27;;;;;;;-2.97;84.72;96824.80;1738727;82;21075;-67
2021/12/16 02:00:42;;;;;;;;;;;;;;;-3.03;84.99;96824.50;1738665;82;21027;-67
2021/12/16 02:03:02;;;;;;;3.77;2.00;;;;;;;-3.05;85.07;96825.31;1735417;82;20104;-67
2021/12/16 02:10:57;;;;;;;4.80;1.93;;;;;;;-3.02;85.46;96818.13;1737438;82;21067;-67
2021/12/16 02:27:25;;;;;;;5.97;2.97;;;;;;;-3.06;85.46;96813.60;1737200;83;21530;-67
2021/12/16 02:30:18;;;;;;;5.80;2.70;;;;;;;-2.94;85.97;96806.92;1737261;83;21107;-66
2021/12/16 02:32:44;;;;;;;4.37;2.73;;;;;;;-2.91;85.71;96805.37;1734323;83;21043;-67
2021/12/16 02:37:43;;;;;;;5.40;2.80;;;;;;;-2.76;85.95;96801.82;1736877;83;21096;-67
2021/12/16 02:40:08;;;;;;;7.73;4.10;;;;;;;-2.65;86.21;96798.95;1736876;82;21020;-67
2021/12/16 02:42:53;;;;;;;14.33;7.20;;;;;;;-2.55;86.49;96794.27;1737751;83;21097;-67
2021/12/16 02:50:40;;;;;;;14.53;7.47;;;;;;;-2.22;86.24;96796.37;1737874;82;21043;-67
2021/12/16 02:53:06;;;;;;;16.63;8.83;;;;;;;-2.08;86.19;96799.66;1736757;82;21103;-67
2021/12/16 02:55:33;;;;;;;15.83;9.73;;;;;;;-2.05;85.59;96793.33;1738127;82;21335;-67
2021/12/16 02:58:00;;;;;;;18.23;11.13;;;;;;;-2.13;85.18;96792.95;1742124;82;21604;-67
2021/12/16 03:00:33;;;;;;;22.37;12.17;;;;;;;-2.20;85.31;96796.05;1747177;82;21026;-67
2021/12/16 03:03:00;;;;;;;18.23;11.87;;;;;;;-2.24;85.59;96790.27;1747761;82;21110;-67
2021/12/16 03:05:27;;;;;;;19.40;10.93;;;;;;;-2.14;85.80;96790.28;1747899;82;21027;-67
2021/12/16 03:07:54;;;;;;;21.73;12.70;;;;;;;-2.13;85.83;96789.08;1747263;81;21605;-67
2021/12/16 03:12:57;;;;;;;36.07;23.50;;;;;;;-2.12;85.73;96788.25;1747225;82;21082;-67
2021/12/16 03:15:56;;;;;;;26.73;18.00;;;;;;;-2.06;85.72;96786.40;1746377;82;21019;-67
2021/12/16 03:18:25;;;;;;;26.77;16.23;;;;;;;-2.04;85.38;96787.33;1744784;82;21015;-67
2021/12/16 03:20:48;;;;;;;30.50;20.80;;;;;;;-2.01;85.27;96785.80;1745214;82;21011;-67
2021/12/16 03:31:07;;;;;;;21.87;14.67;;;;;;;-1.82;86.07;96782.80;1747649;82;20952;-67
2021/12/16 03:36:25;;;;;;;25.07;15.83;;;;;;;-1.74;86.13;96780.17;1747546;82;20967;-67
2021/12/16 03:38:39;;;;;;;33.87;22.33;;;;;;;-1.65;86.55;96781.91;1743425;82;21103;-67
2021/12/16 03:41:08;;;;;;;26.30;17.67;;;;;;;-1.55;86.40;96781.52;1747123;82;21521;-67
2021/12/16 03:43:37;;;;;;;31.27;20.63;;;;;;;-1.56;85.63;96782.77;1747803;82;21102;-67
2021/12/16 03:46:26;;;;;;;29.17;18.43;;;;;;;-1.57;85.81;96779.68;1747891;82;21450;-67
2021/12/16 03:48:58;;;;;;;25.43;14.77;;;;;;;-1.50;85.92;96779.57;1747410;82;21028;-67
2021/12/16 03:51:44;;;;;;;29.27;18.90;;;;;;;-1.50;85.60;96775.27;1747350;82;21035;-67
2021/12/16 03:54:19;;;;;;;31.93;17.70;;;;;;;-1.54;85.70;96783.70;1747514;82;21015;-67
2021/12/16 03:56:48;;;;;;;29.30;16.47;;;;;;;-1.46;86.17;96777.20;1744147;82;21099;-67
2021/12/16 03:59:21;;;;;;;31.20;17.97;;;;;;;-1.35;85.97;96776.40;1737338;83;21103;-67
2021/12/16 04:01:52;;;;;;;27.07;16.13;;;;;;;-1.33;85.59;96780.83;1737172;82;21019;-68
2021/12/16 04:04:21;;;;;;;27.67;16.27;;;;;;;-1.28;85.54;96781.05;1737025;82;21115;-67
2021/12/16 04:06:49;;;;;;;26.83;15.73;;;;;;;-1.32;84.96;96782.59;1737613;83;20996;-67
2021/12/16 04:09:18;;;;;;;30.70;16.03;;;;;;;-1.35;85.28;96781.16;1737397;83;21067;-67
2021/12/16 04:11:57;;;;;;;26.73;16.13;;;;;;;-1.26;85.48;96782.01;1735850;82;21019;-67
2021/12/16 04:14:20;;;;;;;28.47;16.62;;;;;;;-1.29;85.36;96787.02;1737424;82;21088;-67
2021/12/16 04:16:54;;;;;;;58.67;28.70;;;;;;;-1.24;85.65;96784.65;1737389;83;20992;-67
2021/12/16 04:19:27;;;;;;;28.03;16.47;;;;;;;-1.23;85.33;96779.55;1736586;82;21088;-67
2021/12/16 04:22:18;;;;;;;28.70;16.67;;;;;;;-1.31;85.32;96779.62;1737660;83;21505;-67
2021/12/16 04:24:49;;;;;;;25.80;16.23;;;;;;;-1.31;85.42;96787.39;1736594;82;21092;-67
2021/12/16 04:27:17;;;;;;;26.23;15.80;;;;;;;-1.29;85.28;96782.25;1737351;83;21095;-67
2021/12/16 04:29:45;;;;;;;27.27;17.93;;;;;;;-1.23;85.88;96777.37;1737226;83;21119;-68
2021/12/16 04:32:13;;;;;;;47.03;26.57;;;;;;;-1.15;85.84;96779.48;1737281;83;21557;-67
2021/12/16 04:34:40;;;;;;;47.40;27.70;;;;;;;-1.18;85.91;96781.94;1737576;83;21063;-67
2021/12/16 04:37:08;;;;;;;25.63;15.50;;;;;;;-1.16;85.53;96783.28;1737717;83;21063;-67
2021/12/16 04:39:38;;;;;;;35.27;20.87;;;;;;;-1.19;85.50;96781.45;1737600;82;20987;-67
2021/12/16 04:42:07;;;;;;;46.90;24.97;;;;;;;-1.15;85.99;96785.96;1737731;83;21094;-67
2021/12/16 04:44:35;;;;;;;54.53;28.57;;;;;;;-1.10;86.14;96782.28;1737543;83;21071;-67
2021/12/16 04:47:05;;;;;;;53.80;29.17;;;;;;;-1.12;85.90;96786.51;1737277;83;21067;-67
2021/12/16 04:49:35;;;;;;;45.77;24.47;;;;;;;-1.05;86.13;96789.86;1737470;83;21576;-67
2021/12/16 04:52:07;;;;;;;41.47;21.77;;;;;;;-0.96;86.12;96786.78;1737444;83;21547;-67
2021/12/16 04:54:34;;;;;;;49.63;24.70;;;;;;;-0.93;85.67;96781.77;1737637;83;21474;-67
2021/12/16 04:57:03;;;;;;;43.03;21.57;;;;;;;-0.92;85.81;96785.70;1740700;82;21027;-67
2021/12/16 04:59:33;;;;;;;38.23;22.13;;;;;;;-0.87;85.99;96789.38;1747564;82;21528;-67
2021/12/16 05:02:08;;;;;;;45.53;24.77;;;;;;;-0.89;85.71;96770.28;1747841;82;21465;-67
2021/12/16 05:04:43;;;;;;;51.33;31.17;;;;;;;-0.97;85.65;96774.66;1744156;82;21031;-67
2021/12/16 05:07:12;;;;;;;82.23;48.30;;;;;;;-0.97;86.05;96771.66;1747370;82;21075;-67
2021/12/16 05:12:16;;;;;;;69.73;38.33;;;;;;;-0.91;86.36;96759.38;1747498;82;21549;-67
2021/12/16 05:14:45;;;;;;;101.37;57.13;;;;;;;-0.86;86.35;96760.46;1747259;82;21103;-67
2021/12/16 05:17:28;;;;;;;85.30;50.50;;;;;;;-0.88;86.09;96759.12;1747881;82;20987;-67
2021/12/16 05:19:52;;;;;;;100.00;53.27;;;;;;;-0.88;86.24;96755.23;1746766;82;21110;-67
2021/12/16 05:25:19;;;;;;;69.47;39.67;;;;;;;-0.81;85.72;96752.89;1747163;82;21043;-67
2021/12/16 05:27:40;;;;;;;53.50;30.13;;;;;;;-0.88;86.07;96752.64;1746359;82;21450;-67
2021/12/16 05:30:08;;;;;;;57.17;30.43;;;;;;;-0.94;86.15;96752.34;1747247;82;20999;-67
2021/12/16 05:32:34;;;;;;;71.00;39.17;;;;;;;-1.05;86.33;96757.89;1747561;82;21584;-67
2021/12/16 05:35:02;;;;;;;62.23;35.00;;;;;;;-1.01;86.66;96752.89;1747117;82;20999;-67
2021/12/16 05:37:29;;;;;;;60.13;33.70;;;;;;;-0.93;87.01;96750.67;1747537;82;21473;-67
2021/12/16 05:39:56;;;;;;;60.57;32.70;;;;;;;-0.92;86.69;96745.54;1747054;82;21019;-67
2021/12/16 05:42:28;;;;;;;64.70;33.73;;;;;;;-0.85;86.66;96749.30;1708040;82;21449;-67
2021/12/16 05:44:54;;;;;;;57.60;31.73;;;;;;;-0.82;86.63;96749.84;1747572;82;21078;-67
2021/12/16 05:47:21;;;;;;;53.27;29.57;;;;;;;-0.73;87.03;96751.12;1747375;82;21019;-67
2021/12/16 05:49:48;;;;;;;52.03;30.80;;;;;;;-0.72;86.78;96752.01;1747515;82;21079;-67
2021/12/16 05:52:16;;;;;;;42.67;25.73;;;;;;;-0.78;86.73;96757.82;1747455;82;21051;-67
2021/12/16 05:54:42;;;;;;;48.40;27.67;;;;;;;-0.81;86.37;96761.55;1745644;82;21019;-68
2021/12/16 05:57:14;;;;;;;54.73;28.87;;;;;;;-0.88;86.49;96762.13;1733319;82;21062;-66
2021/12/16 05:59:43;;;;;;;57.10;31.87;;;;;;;-0.87;86.68;96766.47;1701741;84;21120;-66
2021/12/16 06:02:10;;;;;;;48.93;27.70;;;;;;;-0.84;87.06;96762.72;1710324;84;21643;-66
2021/12/16 06:04:38;;;;;;;70.10;36.83;;;;;;;-0.75;87.15;96766.14;1710509;84;21126;-67
2021/12/16 06:07:07;;;;;;;66.43;34.43;;;;;;;-0.67;87.32;96759.58;1710142;84;21003;-68
2021/12/16 06:09:35;;;;;;;56.87;29.33;;;;;;;-0.62;86.96;96753.30;1709568;84;21034;-69
2021/12/16 06:12:03;;;;;;;51.73;27.30;;;;;;;-0.59;87.09;96756.02;1711976;84;21066;-68
2021/12/16 06:23:10;;;;;;;205.93;77.30;;;;;;;-0.56;86.95;96767.80;1711542;84;21530;-66
2021/12/16 06:28:02;;;;;;;176.27;71.03;;;;;;;-0.59;86.50;96769.85;1712323;84;21020;-67
2021/12/16 06:30:32;;;;;;;165.40;66.27;;;;;;;-0.53;86.88;96775.32;1711474;84;21039;-66
2021/12/16 06:33:00;;;;;;;98.17;39.83;;;;;;;-0.44;86.93;96769.63;1712203;82;21067;-67
2021/12/16 06:35:27;;;;;;;190.13;71.07;;;;;;;-0.46;86.63;96771.27;1715280;82;21008;-67
2021/12/16 06:37:54;;;;;;;134.23;60.33;;;;;;;-0.56;86.46;96774.28;1713190;82;21043;-69
2021/12/16 06:40:26;;;;;;;113.37;51.07;;;;;;;-0.56;86.60;96784.66;1705713;82;21120;-69
2021/12/16 06:43:09;;;;;;;101.73;45.63;;;;;;;-0.58;86.16;96778.51;1700422;83;21000;-67
2021/12/16 06:45:38;;;;;;;149.07;70.63;;;;;;;-0.67;85.80;96781.60;1704101;83;21542;-66
2021/12/16 06:48:13;;;;;;;144.07;62.40;;;;;;;-0.70;85.94;96782.77;1704025;84;21039;-68
2021/12/16 06:50:51;;;;;;;95.23;44.67;;;;;;;-0.66;86.44;96781.69;1703471;84;21010;-66
2021/12/16 06:53:24;;;;;;;113.17;50.20;;;;;;;-0.60;86.54;96778.88;1701912;84;21186;-67
2021/12/16 06:55:55;;;;;;;103.17;49.40;;;;;;;-0.64;86.81;96786.03;1702608;84;21096;-67
2021/12/16 06:58:24;;;;;;;108.50;51.93;;;;;;;-0.62;86.87;96788.29;1746855;81;21038;-66
2021/12/16 07:00:47;;;;;;;96.67;50.20;;;;;;;-0.54;87.22;96791.67;1758365;81;20987;-65
2021/12/16 07:03:22;;;;;;;111.00;50.30;;;;;;;-0.41;87.45;96789.20;1751797;81;21042;-66
2021/12/16 07:05:47;;;;;;;111.63;55.33;;;;;;;-0.41;86.62;96787.90;1750900;82;21050;-65
2021/12/16 07:08:17;;;;;;;93.93;44.57;;;;;;;-0.44;86.56;96796.85;1752394;82;21085;-67
2021/12/16 07:10:47;;;;;;;21.40;12.40;;;;;;;-0.41;86.72;96789.61;1752618;82;21026;-66
2021/12/16 07:13:19;;;;;;;13.87;8.60;;;;;;;-0.40;86.52;96795.27;1750992;81;21038;-69
2021/12/16 07:15:47;;;;;;;70.10;36.97;;;;;;;-0.36;86.92;96791.58;1747299;81;20994;-67
2021/12/16 07:18:15;;;;;;;92.53;46.47;;;;;;;-0.37;87.19;96803.20;1737181;82;21548;-69
2021/12/16 07:20:42;;;;;;;101.57;52.73;;;;;;;-0.32;87.06;96802.56;1761407;81;20986;-66
2021/12/16 07:23:10;;;;;;;92.77;43.63;;;;;;;-0.24;87.20;96789.92;1760869;81;21019;-66
2021/12/16 07:25:37;;;;;;;84.20;45.13;;;;;;;-0.16;86.96;96789.83;1761051;81;21019;-66
2021/12/16 07:28:07;;;;;;;88.57;46.53;;;;;;;-0.12;86.87;96796.05;1761702;81;21528;-65
2021/12/16 07:30:38;;;;;;;110.97;57.87;;;;;;;-0.15;86.74;96792.91;1761682;81;21065;-65
2021/12/16 07:33:07;;;;;;;104.43;51.90;;;;;;;-0.15;86.51;96782.53;1761609;81;20999;-66
2021/12/16 07:35:36;;;;;;;88.97;46.63;;;;;;;-0.09;86.91;96792.28;1760660;81;21026;-65
2021/12/16 07:38:04;;;;;;;110.67;53.10;;;;;;;0.00;86.90;96783.59;1761809;81;21021;-65
2021/12/16 07:40:33;;;;;;;110.43;52.10;;;;;;;0.02;86.50;96790.12;1761415;81;21063;-64
2021/12/16 07:45:38;;;;;;;63.80;36.00;;;;;;;0.17;87.26;96790.73;1761398;81;21071;-69
2021/12/16 07:48:05;;;;;;;108.00;51.80;;;;;;;0.23;86.76;96792.69;1760016;81;21061;-68
2021/12/16 07:50:32;;;;;;;74.97;38.67;;;;;;;0.25;86.55;96791.05;1760470;81;21540;-68
2021/12/16 07:52:59;;;;;;;69.73;34.83;;;;;;;0.36;86.97;96784.59;1760619;81;21062;-68
2021/12/16 07:55:27;;;;;;;77.77;42.37;;;;;;;0.50;86.88;96781.23;1760337;81;21109;-65
2021/12/16 07:57:54;;;;;;;75.30;40.00;;;;;;;0.51;86.35;96785.20;1760474;81;21536;-68
2021/12/16 08:00:25;;;;;;;68.97;37.57;;;;;;;0.53;86.44;96789.12;1761030;81;21117;-67
2021/12/16 08:02:53;;;;;;;72.07;40.20;;;;;;;0.56;86.20;96784.96;1759931;81;21635;-67
2021/12/16 08:05:24;;;;;;;77.60;44.60;;;;;;;0.53;85.79;96786.15;1760449;81;21033;-67
2021/12/16 08:07:52;;;;;;;64.73;38.67;;;;;;;0.53;85.90;96790.05;1761182;81;21118;-65
2021/12/16 08:10:22;;;;;;;52.10;28.33;;;;;;;0.55;86.34;96778.39;1761232;81;21413;-66
2021/12/16 08:12:49;;;;;;;59.47;33.77;;;;;;;0.56;86.02;96781.48;1761201;81;21138;-67
2021/12/16 08:15:17;;;;;;;56.67;31.83;;;;;;;0.64;86.29;96793.05;1761290;81;21474;-66
2021/12/16 08:17:45;;;;;;;59.40;28.70;;;;;;;0.63;86.41;96779.57;1760341;81;21385;-68
2021/12/16 08:20:18;;;;;;;46.13;26.00;;;;;;;0.70;86.52;96779.41;1759942;81;21086;-68
2021/12/16 08:22:48;;;;;;;48.13;29.20;;;;;;;0.76;86.42;96783.14;1754462;81;20996;-69
2021/12/16 08:25:19;;;;;;;50.53;28.40;;;;;;;0.79;86.18;96784.55;1762811;81;21058;-70
2021/12/16 08:27:46;;;;;;;52.33;30.57;;;;;;;0.81;85.93;96775.10;1760097;81;21060;-67
2021/12/16 08:30:17;;;;;;;56.40;30.77;;;;;;;0.86;85.97;96775.28;1761239;81;21555;-68
2021/12/16 08:32:44;;;;;;;58.13;34.37;;;;;;;1.00;86.22;96770.16;1761056;81;20994;-70
2021/12/16 08:35:12;;;;;;;57.43;33.87;;;;;;;1.26;86.67;96776.73;1760788;81;21057;-67
2021/12/16 08:37:39;;;;;;;76.43;42.63;;;;;;;1.45;86.03;96782.19;1760967;81;21023;-71
2021/12/16 08:40:14;;;;;;;87.33;49.47;;;;;;;1.47;85.15;96776.21;1761496;81;20995;-69
2021/12/16 08:42:42;;;;;;;108.87;61.07;;;;;;;1.58;85.23;96777.00;1760566;81;21109;-67
2021/12/16 08:45:15;;;;;;;103.07;55.27;;;;;;;1.54;84.32;96781.23;1760407;81;21572;-70
2021/12/16 08:47:43;;;;;;;105.47;58.37;;;;;;;1.47;84.26;96773.61;1760392;81;21023;-67
2021/12/16 08:50:16;;;;;;;101.47;59.20;;;;;;;1.47;84.53;96774.91;1759901;81;21101;-69
2021/12/16 08:52:43;;;;;;;94.80;50.50;;;;;;;1.59;84.77;96774.47;1761315;81;21014;-67
2021/12/16 08:55:11;;;;;;;90.73;45.13;;;;;;;1.69;85.20;96759.64;1761466;81;21074;-68
2021/12/16 08:57:38;;;;;;;71.40;39.63;;;;;;;1.86;84.80;96768.00;1761176;81;21097;-71
2021/12/16 09:00:10;;;;;;;63.93;37.33;;;;;;;2.01;84.64;96762.43;1760443;81;21656;-69
2021/12/16 09:02:37;;;;;;;52.77;31.03;;;;;;;2.26;84.47;96770.63;1760405;81;21026;-66
2021/12/16 09:05:06;;;;;;;46.53;27.63;;;;;;;2.45;84.45;96768.20;1761688;81;21364;-69
2021/12/16 09:07:33;;;;;;;44.50;24.17;;;;;;;2.55;83.75;96759.84;1761594;81;21035;-68
2021/12/16 09:10:00;;;;;;;45.87;25.10;;;;;;;2.62;83.36;96758.33;1761234;81;21074;-65
2021/12/16 09:14:58;;;;;;;43.50;25.57;;;;;;;2.57;82.16;96765.99;1761642;80;21647;-70
2021/12/16 09:17:25;;;;;;;42.37;25.77;;;;;;;2.53;82.24;96761.94;1734779;81;21437;-69
2021/12/16 09:19:55;;;;;;;38.70;25.57;;;;;;;2.48;82.44;96760.48;1756948;81;21395;-68
2021/12/16 09:22:24;;;;;;;47.97;25.87;;;;;;;2.47;82.56;96765.24;1759155;81;21046;-67
2021/12/16 09:24:52;;;;;;;47.00;28.57;;;;;;;2.45;82.49;96753.00;1778011;81;21053;-67
2021/12/16 09:27:19;;;;;;;50.37;28.73;;;;;;;2.44;82.44;96750.80;1777683;80;21038;-69
2021/12/16 09:29:47;;;;;;;37.00;24.47;;;;;;;2.47;82.55;96752.22;1777900;80;21083;-73
2021/12/16 09:32:15;;;;;;;35.03;20.90;;;;;;;2.52;82.72;96751.94;1778084;81;21118;-71
2021/12/16 09:34:45;;;;;;;36.17;20.70;;;;;;;2.56;82.77;96747.70;1778660;80;21133;-71
2021/12/16 09:37:12;;;;;;;31.50;21.27;;;;;;;2.62;82.80;96743.08;1778594;80;21049;-69
2021/12/16 09:39:39;;;;;;;32.37;21.03;;;;;;;2.73;82.91;96739.09;1778187;80;21734;-69
2021/12/16 09:42:09;;;;;;;29.60;19.17;;;;;;;2.73;82.51;96742.58;1778392;80;21567;-70
2021/12/16 09:44:38;;;;;;;29.80;17.23;;;;;;;2.76;82.01;96745.70;1778632;81;21129;-75
2021/12/16 09:47:09;;;;;;;27.90;16.73;;;;;;;2.86;82.63;96736.01;1777629;80;21133;-68
2021/12/16 09:49:38;;;;;;;25.30;17.57;;;;;;;2.91;82.14;96732.23;1778178;81;21015;-68
2021/12/16 09:52:10;;;;;;;28.57;19.00;;;;;;;2.91;81.76;96736.15;1778430;81;21591;-70
2021/12/16 09:54:40;;;;;;;33.20;21.60;;;;;;;2.86;81.67;96741.22;1778118;80;21058;-69
2021/12/16 09:57:07;;;;;;;35.77;20.43;;;;;;;2.88;81.48;96739.98;1778430;81;21050;-70
2021/12/16 09:59:35;;;;;;;36.87;23.57;;;;;;;2.88;81.41;96735.64;1790471;80;21104;-68
2021/12/16 10:02:11;;;;;;;39.03;22.80;;;;;;;2.84;81.28;96742.02;1790226;80;21105;-71
2021/12/16 10:04:38;;;;;;;53.10;31.90;;;;;;;2.87;81.56;96729.06;1787807;80;21113;-69
2021/12/16 10:07:14;;;;;;;69.67;41.47;;;;;;;2.78;81.54;96723.17;1778141;81;21579;-68
2021/12/16 10:09:43;;;;;;;76.57;48.17;;;;;;;2.84;82.16;96716.83;1778371;80;21084;-70
2021/12/16 10:12:15;;;;;;;77.93;49.70;;;;;;;2.93;82.36;96721.02;1778207;81;21076;-69
2021/12/16 10:15:01;;;;;;;76.07;43.57;;;;;;;2.99;82.27;96715.09;1778301;80;21054;-69
2021/12/16 10:19:48;;;;;;;55.57;33.97;;;;;;;3.00;81.84;96704.72;1779083;80;21062;-70
2021/12/16 10:22:20;;;;;;;41.53;25.70;;;;;;;3.06;82.23;96695.30;1779226;80;21098;-69
2021/12/16 10:24:50;;;;;;;43.53;25.67;;;;;;;3.08;82.12;96697.11;1779317;81;21051;-69
2021/12/16 10:27:25;;;;;;;48.60;28.67;;;;;;;3.08;81.88;96701.02;1779285;81;21557;-69
2021/12/16 10:29:59;;;;;;;54.20;33.10;;;;;;;3.05;81.71;96695.72;1778385;81;21596;-69
2021/12/16 10:32:46;;;;;;;54.93;30.93;;;;;;;3.04;81.84;96688.72;1778286;81;21037;-71
2021/12/16 10:35:28;;;;;;;48.00;29.97;;;;;;;3.02;81.57;96687.79;1778452;80;20999;-71
2021/12/16 10:38:03;;;;;;;53.17;32.10;;;;;;;2.97;81.50;96694.20;1778099;80;21049;-71
2021/12/16 10:40:47;;;;;;;38.53;23.90;;;;;;;2.94;81.44;96703.22;1778419;81;20983;-71
2021/12/16 10:43:34;;;;;;;41.63;24.33;;;;;;;2.92;81.48;96700.10;1778594;81;21022;-71
2021/12/16 10:46:11;;;;;;;35.33;19.30;;;;;;;2.93;81.70;96700.16;1779335;81;21129;-72
2021/12/16 10:48:51;;;;;;;38.87;20.97;;;;;;;2.93;81.22;96701.47;1779437;80;21477;-72
2021/12/16 10:51:32;;;;;;;35.87;21.27;;;;;;;2.94;81.21;96698.00;1779492;81;21078;-72
2021/12/16 10:54:07;;;;;;;29.00;17.23;;;;;;;2.95;81.30;96699.80;1779228;80;21021;-72
2021/12/16 10:56:56;;;;;;;29.90;17.90;;;;;;;2.95;81.08;96700.22;1778859;81;21019;-71
2021/12/16 10:59:44;;;;;;;16.93;11.87;;;;;;;2.92;80.52;96697.50;1770760;80;21051;-71
2021/12/16 11:02:24;;;;;;;19.07;12.27;;;;;;;2.91;80.68;96692.70;1771196;81;21046;-71
2021/12/16 11:05:14;;;;;;;20.77;11.83;;;;;;;2.91;80.38;96684.89;1771451;80;20999;-71
2021/12/16 11:07:48;;;;;;;16.43;10.07;;;;;;;2.97;80.18;96677.66;1771308;81;21054;-71
2021/12/16 11:10:29;;;;;;;18.23;9.60;;;;;;;3.07;79.83;96686.63;1771125;81;21039;-71
2021/12/16 11:13:07;;;;;;;20.77;11.90;;;;;;;3.17;79.82;96686.03;1770993;81;21102;-71
2021/12/16 11:15:48;;;;;;;28.40;14.43;;;;;;;3.23;79.40;96679.27;1771089;81;21547;-72
2021/12/16 11:18:25;;;;;;;24.53;12.83;;;;;;;3.24;79.34;96673.62;1771002;80;21106;-72
2021/12/16 11:20:57;;;;;;;17.33;10.30;;;;;;;3.23;79.12;96674.06;1771261;80;21532;-72
2021/12/16 11:23:35;;;;;;;15.57;10.50;;;;;;;3.23;78.80;96664.05;1771456;81;21062;-72
2021/12/16 11:26:18;;;;;;;15.50;9.70;;;;;;;3.23;79.09;96666.66;1771052;81;21055;-72
2021/12/16 11:28:51;;;;;;;19.60;12.33;;;;;;;3.22;79.49;96665.75;1771114;81;21115;-72
2021/12/16 11:31:25;;;;;;;;;;;;;;;3.23;79.75;96666.23;1773774;80;21019;-72
2021/12/16 11:33:56;;;;;;;28.50;17.10;;;;;;;3.21;79.83;96665.30;1771226;81;20407;-72
2021/12/16 11:36:47;;;;;;;28.43;16.87;;;;;;;3.16;79.75;96658.20;1771566;81;21509;-71
2021/12/16 11:39:18;;;;;;;29.70;15.90;;;;;;;3.11;79.65;96652.86;1771397;80;21536;-72
2021/12/16 11:41:50;;;;;;;25.10;14.70;;;;;;;3.07;79.87;96655.33;1771171;81;20999;-71
2021/12/16 11:44:28;;;;;;;31.43;18.33;;;;;;;3.02;79.51;96653.50;1770806;81;21038;-71
2021/12/16 11:47:09;;;;;;;35.63;19.53;;;;;;;2.99;79.52;96650.78;1771414;80;21492;-71
2021/12/16 11:49:43;;;;;;;30.53;17.30;;;;;;;2.93;79.49;96652.36;1771358;81;21027;-72
2021/12/16 11:52:21;;;;;;;21.60;14.00;;;;;;;2.91;79.75;96651.42;1749853;81;21458;-72
2021/12/16 11:54:56;;;;;;;31.80;17.17;;;;;;;2.88;79.95;96650.92;1771709;81;21503;-72
2021/12/16 11:57:33;;;;;;;29.43;17.17;;;;;;;2.87;79.97;96654.34;1771346;81;20987;-72
2021/12/16 12:00:17;;;;;;;23.53;13.43;;;;;;;2.80;80.05;96656.34;1770857;81;20995;-72
2021/12/16 12:02:54;;;;;;;23.80;12.50;;;;;;;2.76;79.94;96647.97;1771110;81;21046;-72
2021/12/16 12:05:46;;;;;;;26.67;13.37;;;;;;;2.68;80.00;96652.96;1770111;81;21065;-72
2021/12/16 12:08:23;;;;;;;18.63;11.67;;;;;;;2.64;80.36;96652.82;1771042;81;21054;-72
2021/12/16 12:11:06;;;;;;;21.33;13.73;;;;;;;2.57;80.83;96651.36;1771003;81;20976;-73
2021/12/16 12:13:39;;;;;;;23.83;13.53;;;;;;;2.54;81.14;96649.06;1770747;80;21014;-72
2021/12/16 12:16:14;;;;;;;21.47;12.53;;;;;;;2.50;81.65;96647.22;1749496;81;20980;-73
2021/12/16 12:18:58;;;;;;;17.20;11.27;;;;;;;2.49;81.83;96645.01;1770482;81;21003;-72
2021/12/16 12:21:39;;;;;;;14.70;9.63;;;;;;;2.48;82.02;96646.28;1770583;81;21118;-73
2021/12/16 12:24:19;;;;;;;18.23;10.50;;;;;;;2.45;82.19;96646.20;1771099;80;21046;-73
2021/12/16 12:26:54;;;;;;;23.70;12.70;;;;;;;2.45;82.29;96646.20;1771113;81;21026;-73
2021/12/16 12:29:34;;;;;;;17.47;10.53;;;;;;;2.44;82.38;96643.99;1770985;81;20976;-73
2021/12/16 12:32:16;;;;;;;19.40;10.17;;;;;;;2.45;82.62;96643.17;1770453;81;21043;-73
2021/12/16 12:34:47;;;;;;;18.97;9.80;;;;;;;2.42;82.60;96644.39;1770776;81;21059;-73
2021/12/16 12:37:19;;;;;;;17.53;9.13;;;;;;;2.40;82.59;96643.45;1771020;81;21118;-73
2021/12/16 12:39:54;;;;;;;20.27;10.87;;;;;;;2.41;82.87;96642.61;1771067;81;20995;-73
2021/12/16 12:42:23;;;;;;;22.30;12.23;;;;;;;2.46;82.94;96640.14;1770822;81;21020;-73
2021/12/16 12:44:51;;;;;;;20.03;10.93;;;;;;;2.51;83.03;96639.44;1770875;81;21054;-73
2021/12/16 12:47:26;;;;;;;21.80;12.20;;;;;;;2.54;82.96;96637.34;1770642;80;21509;-73
2021/12/16 12:50:09;;;;;;;21.43;10.97;;;;;;;2.59;83.10;96634.44;1771070;80;21446;-73
2021/12/16 12:52:37;;;;;;;26.97;16.25;;;;;;;2.59;83.44;96644.86;1771122;81;21130;-72
2021/12/16 12:55:15;;;;;;;26.83;15.53;;;;;;;2.60;83.50;96644.05;1770737;80;20984;-72
2021/12/16 12:57:45;;;;;;;26.97;16.10;;;;;;;2.57;83.59;96639.63;1770349;81;21082;-72
2021/12/16 13:00:32;;;;;;;32.10;18.70;;;;;;;2.55;83.60;96645.63;1771046;80;21481;-72
2021/12/16 13:03:11;;;;;;;36.87;21.60;;;;;;;2.58;83.75;96646.59;1771002;81;20984;-72
2021/12/16 13:05:39;;;;;;;32.27;21.07;;;;;;;2.57;83.75;96647.45;1770859;80;21015;-73
2021/12/16 13:08:10;;;;;;;30.57;19.77;;;;;;;2.59;83.99;96646.17;1770724;81;21103;-73
2021/12/16 13:10:45;;;;;;;33.30;19.93;;;;;;;2.66;83.96;96655.05;1770625;81;21047;-73
2021/12/16 13:16:56;;;;;;;39.37;24.80;;;;;;;2.73;83.97;96651.80;1770631;80;20984;-73
2021/12/16 13:26:49;;;;;;;36.83;19.23;;;;;;;2.72;84.04;96653.52;1770879;80;21550;-73
2021/12/16 13:29:35;;;;;;;27.47;17.53;;;;;;;2.68;83.88;96655.56;1770441;80;21088;-72
2021/12/16 13:32:28;;;;;;;28.73;17.70;;;;;;;2.64;84.23;96667.16;1769760;81;21122;-73
2021/12/16 13:35:22;;;;;;;39.17;22.83;;;;;;;2.66;84.35;96671.99;1767289;81;21589;-72
2021/12/16 13:37:46;;;;;;;27.17;18.60;;;;;;;2.66;84.32;96668.09;1768918;81;20980;-72
2021/12/16 13:40:33;;;;;;;30.67;17.27;;;;;;;2.66;84.49;96673.30;1770373;81;20999;-72
2021/12/16 13:43:10;;;;;;;31.73;16.80;;;;;;;2.64;84.44;96675.84;1770907;80;21023;-72
2021/12/16 13:45:48;;;;;;;24.43;15.03;;;;;;;2.61;84.54;96678.37;1770549;81;21056;-72
2021/12/16 14:07:57;;;;;;;18.77;11.17;;;;;;;2.44;85.07;96669.16;1759507;81;21023;-73
2021/12/16 14:10:50;;;;;;;15.13;11.30;;;;;;;2.43;85.19;96667.41;1768556;81;21059;-73
2021/12/16 14:25:12;;;;;;;18.27;13.17;;;;;;;2.04;86.84;96682.25;1770591;81;21030;-73
2021/12/16 14:34:11;;;;;;;28.60;16.70;;;;;;;2.00;87.42;96685.19;1770631;81;21031;-72
2021/12/16 14:36:07;;;;;;;34.87;22.13;;;;;;;1.99;86.75;96686.03;1767892;81;21465;-72
2021/12/16 14:46:46;;;;;;;31.13;18.30;;;;;;;2.07;86.87;96687.58;1771167;80;20991;-72
2021/12/16 14:49:07;;;;;;;24.70;16.70;;;;;;;2.04;86.91;96682.25;1770276;81;21518;-72
2021/12/16 14:51:34;;;;;;;24.27;16.17;;;;;;;2.05;86.87;96687.94;1770712;81;21015;-72
2021/12/16 14:54:01;;;;;;;27.13;16.83;;;;;;;2.00;87.09;96690.39;1770729;80;21023;-72
2021/12/16 14:56:36;;;;;;;24.63;15.63;;;;;;;2.04;87.22;96697.48;1770866;80;21046;-72
2021/12/16 14:59:12;;;;;;;28.80;18.27;;;;;;;2.11;87.34;96690.30;1770832;80;21086;-72
2021/12/16 15:01:47;;;;;;;31.83;20.63;;;;;;;2.09;87.00;96694.60;1771083;81;21496;-72
2021/12/16 15:04:20;;;;;;;30.80;18.60;;;;;;;2.10;87.01;96698.96;1771110;81;21015;-72
2021/12/16 15:06:52;;;;;;;35.63;20.30;;;;;;;2.15;87.23;96699.11;1770986;81;21114;-72